Time;durP1;ratioP1;P1;durP2;ratioP2;P2;SDS_P1;SDS_P2;PMS_P1;PMS_P2;Temp;Humidity;BMP_temperature;BMP_pressure;BME280_temperature;BME280_humidity;BME280_pressure;Samples;Min_cycle;Max_cycle;Signal;HPM_P1;HPM_P2
2022/12/02 00:00:25;;;;;;;29.93;13.33;;;;;;;2.90;84.18;102890.78;6046269;29;20261;-80
2022/12/02 00:03:47;;;;;;;24.63;13.53;;;;;;;2.95;83.95;102891.56;6052580;29;20260;-80
2022/12/02 00:07:15;;;;;;;23.13;12.07;;;;;;;2.83;84.19;102885.66;6065984;29;20316;-80
2022/12/02 00:10:43;;;;;;;20.40;11.20;;;;;;;2.66;84.62;102883.41;6053312;29;20223;-80
2022/12/02 00:14:16;;;;;;;24.70;14.50;;;;;;;2.79;84.35;102883.97;6065265;29;20224;-80
2022/12/02 00:17:39;;;;;;;22.47;14.27;;;;;;;2.83;84.80;102881.22;6063867;29;20214;-81
2022/12/02 00:21:02;;;;;;;29.20;15.83;;;;;;;2.91;84.68;102875.69;6055938;29;20240;-79
2022/12/02 00:24:23;;;;;;;34.03;15.50;;;;;;;2.89;84.55;102883.72;6060852;29;20694;-80
2022/12/02 00:27:47;;;;;;;27.77;13.83;;;;;;;2.72;85.01;102874.38;6058312;29;20236;-81
2022/12/02 00:31:08;;;;;;;36.00;16.27;;;;;;;2.73;85.13;102870.81;6056839;29;20307;-81
2022/12/02 00:34:29;;;;;;;30.30;16.10;;;;;;;2.82;84.73;102868.78;6059534;29;20241;-82
2022/12/02 00:37:50;;;;;;;26.17;14.07;;;;;;;2.78;84.47;102868.91;6038657;29;20233;-81
2022/12/02 00:41:11;;;;;;;29.17;16.53;;;;;;;2.89;83.81;102877.50;6033827;29;20252;-82
2022/12/02 00:48:16;;;;;;;27.87;13.63;;;;;;;2.64;84.05;102866.59;6063813;29;20323;-81
2022/12/02 00:51:43;;;;;;;26.97;16.03;;;;;;;2.70;83.96;102868.22;6032327;29;20777;-81
2022/12/02 00:55:05;;;;;;;30.67;15.10;;;;;;;2.58;83.58;102866.75;6037753;29;20491;-80
2022/12/02 00:58:26;;;;;;;23.90;10.27;;;;;;;2.46;83.20;102859.06;6060360;29;20240;-79
2022/12/02 01:01:50;;;;;;;20.67;11.17;;;;;;;2.45;82.53;102865.28;6038462;29;20240;-80
2022/12/02 01:05:10;;;;;;;17.90;10.87;;;;;;;2.59;82.38;102857.81;6052219;29;20732;-82
2022/12/02 01:08:32;;;;;;;30.07;12.87;;;;;;;2.71;82.37;102857.53;6055448;29;20237;-81
2022/12/02 01:11:57;;;;;;;23.60;13.70;;;;;;;2.75;81.71;102861.88;6037832;29;20256;-80
2022/12/02 01:15:21;;;;;;;22.23;12.90;;;;;;;2.75;81.84;102861.88;6030568;29;20241;-80
2022/12/02 01:18:43;;;;;;;16.33;11.57;;;;;;;2.73;81.51;102855.72;6057582;29;20612;-80
2022/12/02 01:22:04;;;;;;;19.13;12.07;;;;;;;2.75;81.80;102855.69;6060657;29;20245;-79
2022/12/02 01:25:26;;;;;;;20.37;11.17;;;;;;;2.71;82.21;102854.84;6036787;29;20573;-80
2022/12/02 01:28:49;;;;;;;21.47;13.80;;;;;;;2.75;82.03;102853.91;6054970;29;20229;-78
2022/12/02 01:32:12;;;;;;;23.13;11.10;;;;;;;2.92;81.74;102848.16;6051594;29;20233;-79
2022/12/02 01:35:35;;;;;;;20.73;12.80;;;;;;;2.96;81.31;102848.00;6036205;29;20238;-78
2022/12/02 01:38:57;;;;;;;24.50;12.93;;;;;;;2.75;81.36;102848.56;6067402;29;20662;-80
2022/12/02 01:42:18;;;;;;;28.73;13.43;;;;;;;2.54;82.20;102851.75;6058981;29;20233;-81
2022/12/02 01:45:45;;;;;;;25.43;15.77;;;;;;;2.45;82.97;102843.97;6055258;28;20278;-80
2022/12/02 01:49:06;;;;;;;20.93;13.33;;;;;;;2.46;83.29;102851.06;6047647;29;20900;-81
2022/12/02 01:52:29;;;;;;;27.93;14.03;;;;;;;2.42;83.79;102844.91;6034528;29;20241;-79
2022/12/02 01:55:54;;;;;;;26.20;14.23;;;;;;;2.61;84.41;102844.50;6061282;29;20236;-78
2022/12/02 01:59:24;;;;;;;25.03;14.67;;;;;;;2.74;83.53;102844.16;6057467;29;20312;-81
2022/12/02 02:02:46;;;;;;;26.20;15.23;;;;;;;2.89;83.24;102850.88;6063414;29;20502;-81
2022/12/02 02:06:07;;;;;;;22.73;13.50;;;;;;;2.86;83.30;102845.63;6043662;29;20896;-81
2022/12/02 02:09:30;;;;;;;26.70;15.70;;;;;;;2.76;83.52;102844.09;6032146;29;20233;-81
2022/12/02 02:12:56;;;;;;;31.40;16.30;;;;;;;2.68;83.94;102844.31;6053673;29;20233;-81
2022/12/02 02:16:17;;;;;;;24.23;13.13;;;;;;;2.73;84.61;102845.06;6056304;29;20854;-81
2022/12/02 02:19:38;;;;;;;29.77;14.87;;;;;;;2.76;84.64;102836.13;6052909;29;20241;-82
2022/12/02 02:23:26;;;;;;;27.00;15.23;;;;;;;2.81;84.24;102842.22;6073040;23;20233;-80
2022/12/02 02:27:09;;;;;;;21.47;14.63;;;;;;;2.74;84.65;102836.16;6145806;23;20240;-80
2022/12/02 02:30:39;;;;;;;29.50;13.80;;;;;;;2.73;84.62;102830.88;6054739;28;20236;-80
2022/12/02 02:34:01;;;;;;;26.10;14.00;;;;;;;2.71;84.70;102832.72;6085137;29;20252;-82
2022/12/02 02:37:22;;;;;;;25.73;14.13;;;;;;;2.67;84.79;102839.03;6096107;29;20681;-81
2022/12/02 02:40:48;;;;;;;21.93;15.53;;;;;;;2.70;84.90;102830.94;6083961;29;20236;-81
2022/12/02 02:44:10;;;;;;;23.27;14.27;;;;;;;2.82;83.99;102830.63;6091508;29;20233;-82
2022/12/02 02:47:31;;;;;;;23.90;13.20;;;;;;;2.84;83.64;102828.81;6050138;28;20244;-81
2022/12/02 02:50:55;;;;;;;22.80;15.30;;;;;;;2.83;83.52;102822.63;6071704;28;20302;-82
2022/12/02 02:54:17;;;;;;;23.17;13.23;;;;;;;2.65;84.26;102824.88;6092968;29;20801;-82
2022/12/02 02:57:40;;;;;;;27.97;16.00;;;;;;;2.66;83.96;102827.50;6080203;28;20324;-82
2022/12/02 03:01:07;;;;;;;24.13;13.70;;;;;;;2.65;84.27;102824.88;6077020;29;20240;-81
2022/12/02 03:04:28;;;;;;;22.83;14.00;;;;;;;2.76;83.84;102817.47;6066782;29;20240;-82
2022/12/02 03:07:50;;;;;;;28.13;14.20;;;;;;;2.77;84.05;102822.78;6070726;29;20237;-81
2022/12/02 03:11:12;;;;;;;24.83;15.67;;;;;;;2.81;84.02;102813.81;6076223;29;20613;-83
2022/12/02 03:14:34;;;;;;;27.60;15.80;;;;;;;2.82;83.96;102814.66;6089665;29;20377;-82
2022/12/02 03:17:56;;;;;;;19.43;12.80;;;;;;;2.73;84.16;102817.56;6046339;28;20236;-82
2022/12/02 03:21:19;;;;;;;20.10;11.07;;;;;;;2.72;84.48;102816.69;6080815;29;20273;-81
2022/12/02 03:24:40;;;;;;;20.23;14.00;;;;;;;2.76;84.12;102815.69;6082106;29;20237;-81
2022/12/02 03:28:01;;;;;;;22.57;15.13;;;;;;;2.63;84.46;102821.38;6077670;29;20247;-81
2022/12/02 03:31:24;;;;;;;18.33;12.83;;;;;;;2.48;84.89;102819.97;6080905;29;20236;-80
2022/12/02 03:34:45;;;;;;;19.23;12.27;;;;;;;2.68;85.60;102824.78;6060838;28;20235;-79
2022/12/02 03:38:06;;;;;;;19.80;11.90;;;;;;;2.58;85.07;102818.81;6079417;28;20315;-81
2022/12/02 03:41:28;;;;;;;20.33;13.77;;;;;;;2.56;85.36;102810.00;6081040;29;20800;-81
2022/12/02 03:44:50;;;;;;;22.33;12.20;;;;;;;2.54;85.95;102809.16;6077153;29;20658;-80
2022/12/02 03:48:20;;;;;;;24.70;11.33;;;;;;;2.58;85.99;102815.28;6079593;29;20233;-80
2022/12/02 03:51:46;;;;;;;16.00;11.23;;;;;;;2.67;86.33;102818.56;6085279;29;20236;-82
2022/12/02 03:55:08;;;;;;;23.40;13.73;;;;;;;2.74;85.73;102808.66;6080522;29;20347;-81
2022/12/02 03:58:39;;;;;;;21.93;15.33;;;;;;;2.66;85.48;102806.19;6083224;29;20229;-81
2022/12/02 04:02:00;;;;;;;30.60;15.30;;;;;;;2.60;86.09;102817.00;6082320;29;20316;-80
2022/12/02 04:05:22;;;;;;;22.83;15.17;;;;;;;2.63;86.48;102816.91;6083869;28;20228;-80
2022/12/02 04:08:44;;;;;;;18.60;14.77;;;;;;;2.60;86.31;102811.69;6059254;29;20232;-83
2022/12/02 04:12:06;;;;;;;24.33;15.30;;;;;;;2.46;87.23;102803.16;6088068;28;20244;-82
2022/12/02 04:15:27;;;;;;;22.57;13.53;;;;;;;2.45;86.85;102798.75;6081706;29;20252;-83
2022/12/02 04:18:48;;;;;;;22.17;13.07;;;;;;;2.47;87.23;102790.72;6082300;29;22496;-82
2022/12/02 04:22:11;;;;;;;21.23;13.30;;;;;;;2.56;87.24;102801.13;6083377;28;20260;-83
2022/12/02 04:25:34;;;;;;;22.83;15.27;;;;;;;2.60;86.55;102802.81;6084855;28;20225;-82
2022/12/02 04:28:56;;;;;;;23.43;14.30;;;;;;;2.47;87.26;102806.69;6083653;29;20717;-82
2022/12/02 04:32:17;;;;;;;22.27;12.33;;;;;;;2.43;87.46;102797.91;6082439;29;20232;-83
2022/12/02 04:35:41;;;;;;;20.40;11.87;;;;;;;2.56;86.82;102798.47;6078705;29;20244;-83
2022/12/02 04:39:04;;;;;;;22.47;12.93;;;;;;;2.66;86.95;102794.66;6079672;29;20801;-82
2022/12/02 04:42:25;;;;;;;19.00;10.57;;;;;;;2.69;86.44;102798.13;6079645;29;20279;-82
2022/12/02 04:45:49;;;;;;;30.53;15.10;;;;;;;2.75;86.45;102792.66;6083065;29;20237;-83
2022/12/02 04:49:11;;;;;;;38.70;23.37;;;;;;;2.72;87.11;102792.72;6091540;28;20324;-83
2022/12/02 04:52:31;;;;;;;26.10;15.70;;;;;;;2.76;86.66;102798.84;6057773;29;20327;-82
2022/12/02 04:55:54;;;;;;;22.20;10.40;;;;;;;2.74;86.71;102793.56;6081269;29;20233;-83
2022/12/02 04:59:15;;;;;;;19.87;12.43;;;;;;;2.68;87.08;102792.84;6082851;28;20229;-83
2022/12/02 05:02:36;;;;;;;22.57;15.20;;;;;;;2.64;87.33;102792.06;6075187;29;20316;-83
2022/12/02 05:05:57;;;;;;;19.73;12.47;;;;;;;2.71;87.23;102790.97;6075470;29;20233;-83
2022/12/02 05:09:18;;;;;;;23.53;16.23;;;;;;;2.71;87.03;102792.78;6077829;28;20228;-83
2022/12/02 05:12:40;;;;;;;28.73;17.73;;;;;;;2.64;86.98;102792.06;6078992;28;20236;-83
2022/12/02 05:16:01;;;;;;;43.83;25.23;;;;;;;2.66;87.32;102794.66;6078835;29;20233;-81
2022/12/02 05:19:22;;;;;;;22.50;13.60;;;;;;;2.71;87.14;102798.94;6081020;29;20346;-83
2022/12/02 05:22:43;;;;;;;30.00;16.90;;;;;;;2.74;87.06;102795.34;6076283;28;20236;-83
2022/12/02 05:26:05;;;;;;;22.50;12.37;;;;;;;2.72;86.95;102795.38;6078459;29;20233;-83
2022/12/02 05:29:27;;;;;;;18.73;11.23;;;;;;;2.64;87.21;102791.16;6080944;28;20323;-81
2022/12/02 05:32:48;;;;;;;22.27;13.63;;;;;;;2.62;87.56;102791.22;6075455;29;20236;-82
2022/12/02 05:36:11;;;;;;;24.30;14.30;;;;;;;2.68;87.29;102799.03;6076747;29;20240;-82
2022/12/02 05:39:32;;;;;;;18.83;11.90;;;;;;;2.67;87.13;102804.41;6077361;29;20571;-80
2022/12/02 05:42:53;;;;;;;25.97;14.67;;;;;;;2.69;87.88;102799.94;6084971;28;20232;-83
2022/12/02 05:46:18;;;;;;;30.47;15.33;;;;;;;2.65;87.62;102793.78;6079857;28;20228;-83
2022/12/02 05:49:41;;;;;;;25.13;14.57;;;;;;;2.54;87.69;102800.31;6077689;29;20626;-83
2022/12/02 05:53:04;;;;;;;20.97;12.40;;;;;;;2.64;87.87;102797.38;6080425;29;20228;-82
2022/12/02 05:56:27;;;;;;;23.43;12.10;;;;;;;2.69;87.26;102795.44;6093462;29;20228;-83
2022/12/02 05:59:51;;;;;;;16.93;12.57;;;;;;;2.79;87.26;102796.13;6082740;28;20303;-84
2022/12/02 06:03:18;;;;;;;24.50;13.10;;;;;;;2.75;87.42;102797.09;6052216;28;20690;-87
2022/12/02 06:06:40;;;;;;;20.97;11.60;;;;;;;2.80;87.40;102801.38;6069753;29;21241;-85
2022/12/02 06:10:01;;;;;;;25.93;15.80;;;;;;;2.78;87.51;102808.53;6073367;28;20260;-83
2022/12/02 06:13:25;;;;;;;26.33;17.93;;;;;;;2.59;87.49;102809.06;6065887;29;20231;-83
2022/12/02 06:16:49;;;;;;;21.07;13.90;;;;;;;2.56;87.98;102814.44;6078135;29;22023;-82
2022/12/02 06:20:18;;;;;;;19.53;13.23;;;;;;;2.65;87.62;102808.91;6076034;28;20786;-81
2022/12/02 06:23:44;;;;;;;19.10;12.00;;;;;;;2.59;87.72;102812.56;6084454;29;20239;-83
2022/12/02 06:27:05;;;;;;;17.33;11.97;;;;;;;2.65;87.97;102800.91;6080485;29;20233;-83
2022/12/02 06:30:27;;;;;;;21.00;12.40;;;;;;;2.71;87.72;102804.28;6083651;29;20808;-82
2022/12/02 06:33:50;;;;;;;18.87;11.87;;;;;;;2.64;87.54;102816.00;6059676;28;20872;-83
2022/12/02 06:37:15;;;;;;;22.40;13.10;;;;;;;2.63;87.85;102808.91;6077380;28;20237;-82
2022/12/02 06:40:38;;;;;;;13.90;11.23;;;;;;;2.70;87.43;102817.63;6075732;28;20691;-85
2022/12/02 06:47:52;;;;;;;15.30;10.57;;;;;;;2.51;87.64;102817.22;6045628;28;20229;-78
2022/12/02 06:51:18;;;;;;;21.10;11.90;;;;;;;2.47;88.39;102822.66;6069813;29;20232;-75
2022/12/02 06:54:41;;;;;;;17.00;10.03;;;;;;;2.45;88.16;102820.03;6070953;29;20224;-76
2022/12/02 06:58:26;;;;;;;22.37;12.60;;;;;;;2.59;87.89;102825.88;6076886;29;20240;-77
2022/12/02 07:01:47;;;;;;;20.80;12.03;;;;;;;2.61;87.80;102823.22;6080367;29;20236;-76
2022/12/02 07:05:10;;;;;;;20.27;12.30;;;;;;;2.53;87.63;102828.69;6076421;28;20236;-77
2022/12/02 07:08:32;;;;;;;24.47;14.60;;;;;;;2.53;88.30;102825.16;6067433;29;20802;-77
2022/12/02 07:11:58;;;;;;;16.50;11.07;;;;;;;2.65;87.59;102830.22;6075895;29;20236;-74
2022/12/02 07:15:26;;;;;;;18.93;12.27;;;;;;;2.65;87.47;102828.38;6072906;29;20264;-76
2022/12/02 07:18:47;;;;;;;19.13;10.50;;;;;;;2.68;87.76;102822.13;6077080;29;20229;-78
2022/12/02 07:22:14;;;;;;;18.87;12.57;;;;;;;2.62;87.69;102828.47;6090117;29;20244;-77
2022/12/02 07:25:38;;;;;;;16.73;12.53;;;;;;;2.53;88.00;102841.13;6055065;28;20235;-75
2022/12/02 07:29:01;;;;;;;17.67;12.43;;;;;;;2.40;88.34;102832.56;6078049;29;20257;-74
2022/12/02 07:32:22;;;;;;;15.10;10.53;;;;;;;2.30;88.38;102831.91;6080048;29;20221;-73
2022/12/02 07:35:43;;;;;;;25.80;15.07;;;;;;;2.36;88.69;102836.22;6086642;29;20229;-73
2022/12/02 07:39:05;;;;;;;21.07;11.03;;;;;;;2.50;88.04;102836.78;6084143;29;20875;-74
2022/12/02 07:42:25;;;;;;;18.47;10.73;;;;;;;2.39;88.09;102831.72;6083237;28;20240;-74
2022/12/02 07:45:48;;;;;;;22.00;12.67;;;;;;;2.40;88.28;102832.56;6083475;29;20237;-74
2022/12/02 07:49:09;;;;;;;19.27;12.63;;;;;;;2.60;87.77;102832.97;6079725;29;20533;-75
2022/12/02 07:52:29;;;;;;;23.67;15.60;;;;;;;2.39;88.14;102836.16;6080456;29;20244;-75
2022/12/02 07:55:50;;;;;;;20.60;12.87;;;;;;;2.41;88.23;102829.88;6043673;29;20237;-75
2022/12/02 07:59:12;;;;;;;19.03;11.23;;;;;;;2.44;88.47;102831.59;6073459;29;20228;-72
2022/12/02 08:02:34;;;;;;;21.00;12.27;;;;;;;2.60;88.05;102830.31;6071155;28;20236;-74
2022/12/02 08:05:55;;;;;;;20.03;12.27;;;;;;;2.73;87.56;102834.44;6051746;29;20593;-74
2022/12/02 08:09:15;;;;;;;22.63;12.90;;;;;;;2.77;87.34;102836.09;6079990;29;20252;-75
2022/12/02 08:12:37;;;;;;;19.10;12.10;;;;;;;2.75;87.09;102824.63;6077891;29;20248;-76
2022/12/02 08:16:00;;;;;;;25.80;11.30;;;;;;;2.73;87.05;102838.88;6096083;29;20255;-76
2022/12/02 08:19:23;;;;;;;24.60;14.03;;;;;;;2.74;87.12;102833.50;6078891;28;20292;-74
2022/12/02 08:22:43;;;;;;;17.87;11.47;;;;;;;2.90;86.68;102826.84;6081168;29;20259;-74
2022/12/02 08:26:04;;;;;;;18.07;12.83;;;;;;;2.88;86.52;102839.34;6085164;29;20241;-77
2022/12/02 08:29:25;;;;;;;18.10;11.13;;;;;;;2.91;86.64;102836.63;6079058;29;20232;-75
2022/12/02 08:32:46;;;;;;;20.10;14.17;;;;;;;2.92;86.56;102833.03;6082174;29;20225;-73
2022/12/02 08:36:09;;;;;;;17.10;11.40;;;;;;;2.67;87.16;102845.19;6090536;29;20579;-77
2022/12/02 08:39:30;;;;;;;17.77;11.73;;;;;;;2.84;86.86;102831.47;6077415;29;20237;-71
2022/12/02 08:42:50;;;;;;;22.80;13.00;;;;;;;2.76;87.01;102844.09;6081205;29;20831;-74
2022/12/02 08:46:12;;;;;;;20.10;12.73;;;;;;;2.58;87.15;102840.13;6056286;28;21281;-73
2022/12/02 08:49:33;;;;;;;20.60;13.70;;;;;;;2.69;87.29;102837.19;6085564;28;20577;-76
2022/12/02 08:52:55;;;;;;;16.93;12.53;;;;;;;2.82;87.07;102843.94;6075344;29;20566;-73
2022/12/02 08:56:16;;;;;;;18.17;11.57;;;;;;;2.87;86.62;102850.03;6079480;29;20240;-76
2022/12/02 08:59:37;;;;;;;23.50;12.07;;;;;;;3.02;87.55;102847.88;6084456;28;20728;-74
2022/12/02 09:02:58;;;;;;;19.23;11.93;;;;;;;3.41;87.37;102845.03;6070221;28;20240;-72
2022/12/02 09:06:19;;;;;;;20.83;12.70;;;;;;;3.28;85.39;102848.94;6069091;29;20241;-73
2022/12/02 09:09:42;;;;;;;18.80;12.00;;;;;;;3.18;85.21;102851.88;6057366;28;20240;-73
2022/12/02 09:13:03;;;;;;;23.83;14.23;;;;;;;2.97;85.68;102854.22;6073444;29;20240;-74
2022/12/02 09:16:24;;;;;;;18.43;12.70;;;;;;;2.85;86.56;102862.53;6073965;28;20241;-74
2022/12/02 09:19:45;;;;;;;26.97;15.27;;;;;;;2.84;86.43;102863.41;6070064;28;20237;-73
2022/12/02 09:23:06;;;;;;;19.00;11.00;;;;;;;2.99;85.95;102873.69;6043953;28;20252;-74
2022/12/02 09:26:28;;;;;;;24.73;14.90;;;;;;;3.12;85.67;102865.38;6068212;28;20236;-74
2022/12/02 09:29:49;;;;;;;27.70;14.87;;;;;;;3.29;85.16;102864.91;6068380;29;20236;-73
2022/12/02 09:33:09;;;;;;;27.03;15.23;;;;;;;3.24;85.11;102858.81;6072207;29;20241;-76
2022/12/02 09:36:30;;;;;;;25.43;13.90;;;;;;;3.35;84.64;102861.19;6040045;28;20361;-73
2022/12/02 09:39:51;;;;;;;19.47;12.20;;;;;;;3.16;84.78;102866.16;6069416;29;20655;-73
2022/12/02 09:43:14;;;;;;;23.83;14.10;;;;;;;2.98;85.28;102874.63;6071323;29;20564;-75
2022/12/02 09:46:35;;;;;;;25.57;12.93;;;;;;;2.87;85.89;102869.56;6067037;28;20682;-71
2022/12/02 09:49:57;;;;;;;24.80;14.60;;;;;;;3.12;85.25;102870.69;6072640;28;20228;-79
2022/12/02 09:53:20;;;;;;;19.40;12.37;;;;;;;3.05;85.25;102878.88;6075466;28;20324;-77
2022/12/02 09:56:40;;;;;;;23.03;14.07;;;;;;;3.11;85.29;102876.03;6049353;29;20662;-77
2022/12/02 10:00:09;;;;;;;23.23;13.97;;;;;;;3.31;84.97;102873.75;6077600;29;20252;-71
2022/12/02 10:03:30;;;;;;;23.73;14.50;;;;;;;3.33;85.05;102874.59;6071399;29;20252;-73
2022/12/02 10:06:51;;;;;;;23.37;13.03;;;;;;;3.29;84.63;102877.38;6073086;29;20233;-71
2022/12/02 10:10:13;;;;;;;23.60;13.57;;;;;;;3.67;85.78;102870.06;6070069;28;20311;-69
2022/12/02 10:13:39;;;;;;;19.60;13.00;;;;;;;3.52;83.94;102870.50;6078051;29;20228;-71
2022/12/02 10:17:02;;;;;;;19.67;10.73;;;;;;;3.47;84.23;102872.41;6071812;29;20232;-73
2022/12/02 10:20:26;;;;;;;25.67;13.77;;;;;;;3.53;83.92;102869.56;6050429;29;20240;-71
2022/12/02 10:23:55;;;;;;;17.90;11.80;;;;;;;3.15;84.86;102870.59;6071805;28;20240;-71
2022/12/02 10:27:27;;;;;;;25.57;13.63;;;;;;;3.17;85.23;102860.78;6074276;29;20263;-71
2022/12/02 10:30:53;;;;;;;29.23;16.17;;;;;;;3.35;84.95;102858.53;6074596;29;20248;-71
2022/12/02 10:34:20;;;;;;;20.67;12.60;;;;;;;3.35;83.89;102855.88;6050308;28;20555;-74
2022/12/02 10:37:41;;;;;;;25.97;14.87;;;;;;;3.27;85.05;102860.53;6082011;29;20351;-68
2022/12/02 10:41:23;;;;;;;21.77;13.77;;;;;;;3.58;87.78;102865.00;6076433;29;20236;-70
2022/12/02 10:44:45;;;;;;;18.37;13.27;;;;;;;3.50;87.53;102860.78;6083418;29;20569;-71
2022/12/02 10:48:16;;;;;;;21.00;12.47;;;;;;;3.67;85.66;102853.19;6080301;29;20237;-72
2022/12/02 10:51:39;;;;;;;18.50;12.40;;;;;;;3.52;84.61;102859.84;6062737;28;20847;-71
2022/12/02 10:55:01;;;;;;;22.73;12.97;;;;;;;3.41;84.49;102851.25;6079553;28;20693;-75
2022/12/02 10:58:26;;;;;;;20.90;13.93;;;;;;;3.48;84.85;102852.84;6083474;29;20236;-71
2022/12/02 11:01:47;;;;;;;21.43;12.80;;;;;;;3.54;84.18;102854.44;6087138;29;20259;-72
2022/12/02 11:05:14;;;;;;;23.90;13.87;;;;;;;3.47;83.96;102858.19;6074069;29;20256;-72
2022/12/02 11:08:38;;;;;;;21.00;11.93;;;;;;;3.49;83.55;102846.56;6061945;28;20236;-75
2022/12/02 11:12:30;;;;;;;17.80;12.37;;;;;;;3.54;83.60;102858.00;6078667;29;20244;-76
2022/12/02 11:15:52;;;;;;;25.27;13.37;;;;;;;3.41;83.96;102843.25;6074952;29;20244;-73
2022/12/02 11:19:39;;;;;;;18.33;11.87;;;;;;;3.39;83.78;102846.88;6072069;29;20693;-71
2022/12/02 11:23:25;;;;;;;22.80;12.40;;;;;;;3.36;84.34;102838.97;6050217;28;20520;-72
2022/12/02 11:27:09;;;;;;;23.27;15.80;;;;;;;3.24;84.33;102840.16;6080251;28;20278;-74
2022/12/02 11:30:37;;;;;;;25.47;14.47;;;;;;;3.35;84.71;102842.53;6082220;29;20229;-73
2022/12/02 11:34:04;;;;;;;15.80;10.40;;;;;;;3.21;84.73;102829.63;6082998;29;20645;-73
2022/12/02 11:37:37;;;;;;;24.13;15.27;;;;;;;3.38;84.64;102832.66;6077217;29;20233;-74
2022/12/02 11:40:59;;;;;;;21.30;14.83;;;;;;;3.34;83.92;102830.16;6074768;28;20352;-72
2022/12/02 11:44:24;;;;;;;21.83;12.27;;;;;;;3.36;83.78;102825.66;6091476;29;20236;-71
2022/12/02 11:47:55;;;;;;;20.97;13.47;;;;;;;3.45;84.00;102826.25;6052876;29;20224;-72
2022/12/02 11:51:31;;;;;;;19.57;12.17;;;;;;;3.57;83.43;102822.34;6079886;29;20240;-73
2022/12/02 11:54:56;;;;;;;18.10;12.60;;;;;;;3.58;83.13;102818.78;6073247;29;20240;-72
2022/12/02 11:58:19;;;;;;;30.07;14.87;;;;;;;3.73;82.93;102813.00;6091088;29;20256;-71
2022/12/02 12:01:41;;;;;;;21.47;14.23;;;;;;;3.48;82.80;102812.84;6075669;29;20527;-73
2022/12/02 12:05:07;;;;;;;21.47;11.67;;;;;;;3.23;83.62;102827.78;6076075;29;20241;-72
2022/12/02 12:08:28;;;;;;;18.93;13.37;;;;;;;3.03;84.80;102827.41;6061530;29;20256;-74
2022/12/02 12:12:10;;;;;;;17.97;12.77;;;;;;;3.02;84.94;102823.03;6059041;29;20240;-72
2022/12/02 12:15:53;;;;;;;19.07;14.13;;;;;;;3.20;84.80;102810.06;6081975;28;20571;-72
2022/12/02 12:19:28;;;;;;;15.87;11.60;;;;;;;3.38;83.72;102816.66;6059248;29;20534;-73
2022/12/02 12:22:49;;;;;;;17.67;10.40;;;;;;;3.44;83.39;102808.53;6055754;29;20239;-74
2022/12/02 12:26:30;;;;;;;17.73;11.70;;;;;;;3.57;83.49;102803.69;6078814;29;20514;-73
2022/12/02 12:29:51;;;;;;;20.67;13.03;;;;;;;3.46;83.35;102804.03;6060112;28;20237;-74
2022/12/02 12:33:12;;;;;;;21.77;12.67;;;;;;;3.16;83.69;102815.53;6056468;29;21198;-72
2022/12/02 12:36:35;;;;;;;14.63;10.97;;;;;;;3.20;84.27;102811.84;6080863;29;20237;-73
2022/12/02 12:39:56;;;;;;;17.10;10.50;;;;;;;3.28;84.00;102803.66;6057602;29;20229;-71
2022/12/02 12:43:17;;;;;;;14.43;11.73;;;;;;;3.04;84.07;102798.09;6065349;29;20245;-76
2022/12/02 12:46:38;;;;;;;21.93;13.00;;;;;;;3.22;84.35;102799.38;6070460;29;20264;-72
2022/12/02 12:49:58;;;;;;;19.93;10.50;;;;;;;3.24;83.79;102805.53;6082580;29;20235;-76
2022/12/02 12:57:37;;;;;;;22.17;13.20;;;;;;;3.21;83.83;102808.28;6074366;29;20220;-75
2022/12/02 13:00:58;;;;;;;24.53;14.30;;;;;;;3.30;83.27;102800.03;6073436;29;20831;-76
2022/12/02 13:04:19;;;;;;;21.10;11.97;;;;;;;3.32;82.95;102800.84;6059782;29;20239;-75
2022/12/02 13:07:40;;;;;;;16.30;11.20;;;;;;;3.08;82.70;102802.44;6064915;29;20784;-75
2022/12/02 13:11:00;;;;;;;17.50;10.43;;;;;;;3.19;83.15;102796.81;6055186;29;20244;-74
2022/12/02 13:14:23;;;;;;;18.30;11.23;;;;;;;3.32;82.70;102803.53;6059476;29;20607;-74
2022/12/02 13:17:43;;;;;;;14.50;9.40;;;;;;;3.43;82.80;102793.44;6063703;29;20232;-74
2022/12/02 13:21:05;;;;;;;21.53;11.77;;;;;;;3.37;81.51;102795.41;6069338;29;20282;-74
2022/12/02 13:24:25;;;;;;;18.33;11.53;;;;;;;3.32;81.70;102794.69;6066397;29;20372;-76
2022/12/02 13:27:46;;;;;;;16.50;9.60;;;;;;;3.38;81.17;102781.16;6080689;29;20224;-75
2022/12/02 13:31:09;;;;;;;16.40;9.43;;;;;;;3.34;80.44;102780.38;6076102;29;20232;-76
2022/12/02 13:34:30;;;;;;;12.23;9.07;;;;;;;3.36;80.04;102793.66;6064096;29;20240;-75
2022/12/02 13:37:51;;;;;;;13.30;9.63;;;;;;;3.38;79.57;102791.84;6072888;29;20240;-74
2022/12/02 13:41:12;;;;;;;15.07;9.93;;;;;;;3.46;79.21;102803.16;6066401;29;20241;-74
2022/12/02 13:44:35;;;;;;;15.77;9.90;;;;;;;3.48;79.38;102802.19;6068240;29;20236;-75
2022/12/02 13:47:58;;;;;;;16.30;9.47;;;;;;;3.46;79.04;102797.81;6069805;29;20236;-76
2022/12/02 13:51:19;;;;;;;15.83;9.73;;;;;;;3.48;79.01;102806.66;6080452;29;20606;-75
2022/12/02 13:54:40;;;;;;;17.27;9.37;;;;;;;3.54;79.47;102802.00;6070847;29;20236;-75
2022/12/02 13:58:00;;;;;;;11.67;8.33;;;;;;;3.43;79.50;102803.22;6074771;28;20331;-76
2022/12/02 14:01:21;;;;;;;12.63;9.37;;;;;;;3.39;79.49;102796.22;6074935;28;20237;-75
2022/12/02 14:04:44;;;;;;;16.47;10.43;;;;;;;3.38;79.47;102776.69;6076071;28;20327;-74
2022/12/02 14:08:05;;;;;;;12.60;9.83;;;;;;;3.17;79.14;102785.31;6073109;29;20590;-74
2022/12/02 14:11:26;;;;;;;16.13;8.67;;;;;;;3.24;80.03;102777.09;6077826;28;20588;-74
2022/12/02 14:14:47;;;;;;;18.57;9.07;;;;;;;3.41;79.46;102771.28;6072779;29;20327;-74
2022/12/02 14:18:08;;;;;;;14.73;8.70;;;;;;;3.76;83.32;102780.91;6065254;29;20244;-74
2022/12/02 14:21:30;;;;;;;12.73;8.13;;;;;;;4.01;80.26;102780.13;6077184;29;20240;-76
2022/12/02 14:24:52;;;;;;;12.57;7.80;;;;;;;3.91;79.03;102785.78;6056772;29;20323;-78
2022/12/02 14:28:13;;;;;;;13.17;8.73;;;;;;;4.03;79.36;102794.28;6072797;29;21768;-75
2022/12/02 14:31:33;;;;;;;12.17;9.17;;;;;;;3.96;78.08;102795.38;6070664;29;20229;-73
2022/12/02 14:34:54;;;;;;;15.77;9.73;;;;;;;3.93;78.62;102792.81;6076286;29;22089;-74
2022/12/02 14:38:17;;;;;;;12.13;7.97;;;;;;;3.81;78.00;102793.19;6087568;28;22522;-70
2022/12/02 14:41:38;;;;;;;13.80;8.30;;;;;;;3.81;80.28;102803.88;6071356;29;20229;-73
2022/12/02 14:44:59;;;;;;;16.93;9.60;;;;;;;3.75;79.56;102806.72;6075118;29;20247;-71
2022/12/02 14:48:20;;;;;;;15.17;10.03;;;;;;;3.90;80.44;102802.72;6069014;28;20670;-70
2022/12/02 14:51:40;;;;;;;19.60;9.60;;;;;;;3.86;79.67;102801.03;6072776;29;20237;-71
2022/12/02 14:55:03;;;;;;;13.10;8.43;;;;;;;3.79;80.11;102808.38;6052536;29;20256;-67
2022/12/02 14:58:24;;;;;;;14.37;8.30;;;;;;;3.64;79.22;102805.28;6063728;29;20244;-69
2022/12/02 15:01:45;;;;;;;17.97;10.57;;;;;;;3.75;80.43;102813.84;6068043;28;20236;-69
2022/12/02 15:05:06;;;;;;;12.07;8.83;;;;;;;3.86;79.86;102812.59;6076119;29;20271;-70
2022/12/02 15:08:27;;;;;;;12.70;8.13;;;;;;;3.87;79.83;102810.81;6065794;29;20233;-69
2022/12/02 15:11:50;;;;;;;13.60;8.57;;;;;;;4.05;80.58;102818.25;6083069;28;20229;-72
2022/12/02 15:15:12;;;;;;;14.67;12.10;;;;;;;4.04;79.34;102817.38;6071841;28;20747;-76
2022/12/02 15:18:34;;;;;;;11.77;7.23;;;;;;;4.07;80.16;102813.72;6061506;28;20240;-71
2022/12/02 15:21:54;;;;;;;13.47;8.70;;;;;;;4.17;79.26;102812.56;6086785;28;20236;-74
2022/12/02 15:25:15;;;;;;;11.20;8.20;;;;;;;4.11;79.08;102806.53;6078337;29;20326;-76
2022/12/02 15:28:38;;;;;;;14.17;8.47;;;;;;;4.13;79.25;102808.19;6071107;28;20301;-70
2022/12/02 15:31:59;;;;;;;17.77;11.20;;;;;;;4.12;79.62;102808.25;6082656;29;20267;-69
2022/12/02 15:35:19;;;;;;;12.53;8.77;;;;;;;4.32;82.05;102805.84;6072960;28;20255;-73
2022/12/02 15:38:41;;;;;;;13.77;10.80;;;;;;;4.25;78.17;102806.97;6047875;29;20236;-71
2022/12/02 15:42:02;;;;;;;13.70;9.47;;;;;;;3.94;78.44;102799.88;6069780;28;20232;-74
2022/12/02 15:45:24;;;;;;;15.90;10.40;;;;;;;3.71;78.62;102805.03;6054684;29;20240;-72
2022/12/02 15:48:45;;;;;;;18.70;9.00;;;;;;;3.64;78.86;102797.28;6062300;29;20231;-75